Time;durP1;ratioP1;P1;durP2;ratioP2;P2;SDS_P1;SDS_P2;PMS_P1;PMS_P2;Temp;Humidity;BMP_temperature;BMP_pressure;BME280_temperature;BME280_humidity;BME280_pressure;Samples;Min_cycle;Max_cycle;Signal;HPM_P1;HPM_P2
2022/08/12 00:43:44;;;;;;;7.47;3.70;;;22.70;50.50;;;;;;5080530;28;20484;-76
2022/08/12 00:48:57;;;;;;;7.83;3.50;;;22.60;50.60;;;;;;5062285;28;20482;-78
2022/08/12 00:52:04;;;;;;;11.17;4.00;;;22.50;50.80;;;;;;5075577;28;20458;-76
2022/08/12 00:54:15;;;;;;;7.20;3.87;;;22.50;50.90;;;;;;5055975;28;21242;-78
2022/08/12 00:56:43;;;;;;;8.73;4.10;;;22.40;50.90;;;;;;5079470;28;20468;-78
2022/08/12 00:59:13;;;;;;;9.67;4.07;;;22.40;51.00;;;;;;5062850;28;20551;-78
2022/08/12 01:01:44;;;;;;;6.20;4.00;;;22.30;51.00;;;;;;5058929;28;20480;-78
2022/08/12 01:13:00;;;;;;;10.27;4.27;;;22.20;51.40;;;;;;5085225;28;20522;-78
2022/08/12 01:15:59;;;;;;;8.03;3.83;;;22.20;51.50;;;;;;5084343;28;20551;-77
2022/08/12 01:18:31;;;;;;;9.47;4.00;;;22.20;51.60;;;;;;5062263;28;20455;-78
2022/08/12 01:21:10;;;;;;;11.43;3.70;;;22.20;51.50;;;;;;5073054;28;20458;-77
2022/08/12 01:24:12;;;;;;;6.23;3.70;;;22.10;51.60;;;;;;5084233;28;20499;-77
2022/08/12 01:27:07;;;;;;;7.37;4.60;;;22.00;51.70;;;;;;5099626;28;20944;-77
2022/08/12 01:29:42;;;;;;;7.33;3.53;;;22.00;51.70;;;;;;5099000;28;21133;-77
2022/08/12 01:32:13;;;;;;;6.60;3.60;;;21.90;51.70;;;;;;5080042;28;20514;-77
2022/08/12 01:34:46;;;;;;;6.27;3.47;;;21.80;51.70;;;;;;5081410;28;20461;-77
2022/08/12 01:37:19;;;;;;;14.67;3.87;;;21.80;51.70;;;;;;5076987;28;20485;-78
2022/08/12 01:39:51;;;;;;;6.90;3.87;;;21.70;51.70;;;;;;5083068;28;20441;-77
2022/08/12 01:42:47;;;;;;;10.10;3.77;;;21.70;51.80;;;;;;5078959;28;20481;-76
2022/08/12 01:45:17;;;;;;;6.00;4.00;;;21.60;52.00;;;;;;5088422;28;20465;-78
2022/08/12 01:48:04;;;;;;;8.43;4.07;;;21.50;52.00;;;;;;5075717;28;20564;-78
2022/08/12 01:50:47;;;;;;;6.70;3.87;;;21.40;52.10;;;;;;5076623;28;20453;-77
2022/08/12 01:53:19;;;;;;;6.20;3.77;;;21.40;52.20;;;;;;5077272;28;20469;-77
2022/08/12 01:55:48;;;;;;;10.73;4.13;;;21.30;52.30;;;;;;5062396;28;20454;-76
2022/08/12 01:58:28;;;;;;;7.70;3.83;;;21.30;52.30;;;;;;5059806;28;20839;-77
2022/08/12 02:01:02;;;;;;;8.40;3.73;;;21.30;52.40;;;;;;5062910;28;21605;-76
2022/08/12 02:13:08;;;;;;;7.10;3.90;;;21.20;52.70;;;;;;5074807;28;20511;-76
2022/08/12 02:15:48;;;;;;;7.33;3.70;;;21.20;52.60;;;;;;5074421;28;20481;-77
2022/08/12 02:18:25;;;;;;;7.00;3.83;;;21.10;52.70;;;;;;5063580;28;21447;-78
2022/08/12 02:21:01;;;;;;;7.50;3.60;;;21.00;52.70;;;;;;5074517;28;20463;-77
2022/08/12 02:23:30;;;;;;;7.20;3.77;;;20.90;52.80;;;;;;5071202;28;20477;-77
2022/08/12 02:26:03;;;;;;;11.33;3.90;;;20.90;52.80;;;;;;5064422;28;20458;-76
2022/08/12 02:28:31;;;;;;;6.33;3.93;;;20.80;52.90;;;;;;5077141;28;20482;-76
2022/08/12 02:31:05;;;;;;;11.43;3.97;;;20.80;53.00;;;;;;5071569;28;20480;-77
2022/08/12 02:33:34;;;;;;;6.20;3.63;;;20.70;53.10;;;;;;5069091;28;20476;-77
2022/08/12 02:36:03;;;;;;;7.40;4.43;;;20.70;53.10;;;;;;5066142;28;20461;-77
2022/08/12 02:38:32;;;;;;;9.00;4.13;;;20.70;53.20;;;;;;5078127;28;20544;-76
2022/08/12 02:41:03;;;;;;;11.50;4.30;;;20.70;53.20;;;;;;5091551;28;20454;-76
2022/08/12 02:43:37;;;;;;;9.87;3.73;;;20.70;53.30;;;;;;5064889;28;20477;-78
2022/08/12 02:46:11;;;;;;;8.17;3.93;;;20.60;53.50;;;;;;5076091;28;20474;-78
2022/08/12 02:48:46;;;;;;;8.17;3.60;;;20.60;53.50;;;;;;5063593;28;20539;-77
2022/08/12 02:51:19;;;;;;;6.30;3.97;;;20.50;53.60;;;;;;5081696;28;20636;-78
2022/08/12 02:53:49;;;;;;;12.57;3.83;;;20.50;53.70;;;;;;5062352;28;20495;-77
2022/08/12 02:56:36;;;;;;;10.93;4.07;;;20.50;53.80;;;;;;5080777;28;20557;-77
2022/08/12 02:59:05;;;;;;;17.13;4.60;;;20.50;53.90;;;;;;5077983;28;20453;-76
2022/08/12 03:01:39;;;;;;;7.30;4.47;;;20.50;54.00;;;;;;5080233;28;20541;-76
2022/08/12 03:04:23;;;;;;;7.40;3.63;;;20.40;54.00;;;;;;5063890;28;20531;-78
2022/08/12 03:06:59;;;;;;;7.47;3.63;;;20.40;54.10;;;;;;5087699;28;20463;-76
2022/08/12 03:09:32;;;;;;;7.20;3.70;;;20.40;54.10;;;;;;5059444;28;20489;-76
2022/08/12 03:12:23;;;;;;;6.63;4.13;;;20.30;54.10;;;;;;5075249;28;20481;-77
2022/08/12 03:14:52;;;;;;;9.30;4.30;;;20.30;54.20;;;;;;5063489;28;20484;-76
2022/08/12 03:17:29;;;;;;;9.03;4.50;;;20.20;54.30;;;;;;5080591;28;20889;-76
2022/08/12 03:19:59;;;;;;;9.37;4.17;;;20.20;54.50;;;;;;5079245;28;20464;-76
2022/08/12 03:22:39;;;;;;;7.47;3.90;;;20.10;54.50;;;;;;5078281;28;20494;-77
2022/08/12 03:25:15;;;;;;;12.53;4.30;;;20.10;54.60;;;;;;5082049;28;20471;-78
2022/08/12 03:27:48;;;;;;;6.93;4.50;;;20.10;54.70;;;;;;5080350;28;21179;-76
2022/08/12 03:30:17;;;;;;;6.00;4.13;;;20.10;54.80;;;;;;5076292;28;20485;-77
2022/08/12 03:32:49;;;;;;;9.20;3.80;;;20.00;54.80;;;;;;5078649;28;20483;-77
2022/08/12 03:35:24;;;;;;;8.83;4.30;;;20.00;54.90;;;;;;5062503;28;20480;-77
2022/08/12 03:38:14;;;;;;;9.80;4.90;;;19.90;55.00;;;;;;5063242;28;20548;-77
2022/08/12 04:00:39;;;;;;;7.60;4.10;;;19.70;55.60;;;;;;5035250;28;20477;-79
2022/08/12 04:03:50;;;;;;;11.60;4.50;;;19.70;55.60;;;;;;5037157;28;20475;-76
2022/08/12 04:05:58;;;;;;;8.87;4.10;;;19.70;55.60;;;;;;5069141;28;21325;-78
2022/08/12 04:08:27;;;;;;;7.03;4.37;;;19.70;55.60;;;;;;5081447;28;20460;-76
2022/08/12 04:13:47;;;;;;;7.87;4.00;;;19.70;55.90;;;;;;5042975;28;20490;-78
2022/08/12 04:16:16;;;;;;;8.60;4.30;;;19.80;55.90;;;;;;5075735;28;20485;-75
2022/08/12 04:18:45;;;;;;;9.07;5.30;;;19.90;56.00;;;;;;5081154;28;20464;-76
2022/08/12 04:21:14;;;;;;;9.40;4.50;;;19.90;56.00;;;;;;5065918;28;20465;-75
2022/08/12 04:23:42;;;;;;;7.23;4.00;;;19.90;56.00;;;;;;5076931;28;20481;-77
2022/08/12 04:26:16;;;;;;;9.33;4.30;;;19.90;56.00;;;;;;5080459;28;20567;-78
2022/08/12 04:28:44;;;;;;;7.03;4.23;;;19.90;56.00;;;;;;5086238;28;20476;-77
2022/08/12 04:31:13;;;;;;;6.13;3.70;;;20.00;56.00;;;;;;5059182;28;20567;-77
2022/08/12 04:33:42;;;;;;;8.03;4.40;;;20.00;56.00;;;;;;5059335;28;20489;-77
2022/08/12 04:36:10;;;;;;;10.83;4.70;;;20.00;56.10;;;;;;5072567;28;20475;-76
2022/08/12 04:38:40;;;;;;;9.83;3.80;;;20.00;56.10;;;;;;5063618;28;20467;-77
2022/08/12 04:41:09;;;;;;;7.40;4.47;;;20.00;56.10;;;;;;5078555;28;20444;-75
2022/08/12 04:43:37;;;;;;;8.00;5.07;;;20.00;56.10;;;;;;5063715;28;20978;-77
2022/08/12 04:46:26;;;;;;;7.20;4.37;;;20.00;56.30;;;;;;5060994;28;20488;-77
2022/08/12 04:49:02;;;;;;;8.73;4.33;;;20.10;56.30;;;;;;5077638;28;20466;-78
2022/08/12 04:51:30;;;;;;;8.30;4.37;;;20.10;56.40;;;;;;5076008;28;20477;-78
2022/08/12 04:54:01;;;;;;;7.93;4.60;;;20.10;56.40;;;;;;5081740;28;20469;-77
2022/08/12 04:56:29;;;;;;;6.90;4.40;;;20.10;56.50;;;;;;5078729;28;20449;-77
2022/08/12 04:59:03;;;;;;;9.27;4.90;;;20.20;56.60;;;;;;5075071;28;20448;-78
2022/08/12 05:01:31;;;;;;;6.20;3.40;;;20.30;56.80;;;;;;5078022;28;20480;-77
2022/08/12 05:04:01;;;;;;;6.33;4.10;;;20.40;56.90;;;;;;5081480;28;20477;-77
2022/08/12 05:06:29;;;;;;;5.83;3.33;;;20.50;57.10;;;;;;5082972;28;20449;-78
2022/08/12 05:08:59;;;;;;;6.57;4.37;;;20.70;57.30;;;;;;5080829;28;20461;-78
2022/08/12 05:11:28;;;;;;;9.37;3.70;;;21.00;57.50;;;;;;5068739;28;20573;-78
2022/08/12 05:14:00;;;;;;;9.67;3.80;;;21.40;57.60;;;;;;5077147;28;20470;-78
2022/08/12 05:16:29;;;;;;;7.33;3.30;;;22.10;56.90;;;;;;5078501;28;21021;-78
2022/08/12 05:19:01;;;;;;;10.50;3.57;;;23.10;55.70;;;;;;5068660;28;20554;-78
2022/08/12 05:21:29;;;;;;;6.57;3.47;;;24.10;54.30;;;;;;5083111;28;20586;-78
2022/08/12 05:23:57;;;;;;;6.70;3.70;;;25.00;53.00;;;;;;5082026;28;20466;-78
2022/08/12 05:26:25;;;;;;;8.80;3.87;;;25.80;52.10;;;;;;5076660;28;21008;-77
2022/08/12 05:28:55;;;;;;;7.67;4.13;;;26.50;51.30;;;;;;5083030;28;20472;-78
2022/08/12 05:31:23;;;;;;;9.50;3.90;;;27.20;50.50;;;;;;5081521;28;20482;-77
2022/08/12 05:34:13;;;;;;;8.30;3.90;;;27.80;49.80;;;;;;5062715;28;20480;-77
2022/08/12 05:36:42;;;;;;;7.10;3.20;;;28.50;49.20;;;;;;5078330;28;20488;-77
2022/08/12 05:39:10;;;;;;;5.70;3.27;;;29.20;48.60;;;;;;5081744;28;20457;-77
2022/08/12 05:41:38;;;;;;;6.50;3.50;;;29.80;48.00;;;;;;5062494;28;20506;-78
2022/08/12 05:44:11;;;;;;;6.53;3.53;;;30.40;47.40;;;;;;5064192;28;20483;-78
2022/08/12 05:46:39;;;;;;;6.40;3.40;;;31.00;46.70;;;;;;5063595;28;20493;-78
2022/08/12 05:49:08;;;;;;;6.10;3.53;;;31.60;46.00;;;;;;5079918;28;20450;-77
2022/08/12 05:51:38;;;;;;;8.20;3.77;;;32.20;45.40;;;;;;5080108;28;20494;-78
2022/08/12 05:54:09;;;;;;;7.47;3.10;;;32.90;44.40;;;;;;5077060;28;20564;-76
2022/08/12 05:56:38;;;;;;;6.27;3.00;;;33.40;43.70;;;;;;5069304;28;20472;-77
2022/08/12 05:59:09;;;;;;;7.10;3.07;;;34.00;42.90;;;;;;5059195;28;20456;-78
2022/08/12 06:01:38;;;;;;;6.77;2.93;;;34.60;42.10;;;;;;5090864;28;20831;-78
2022/08/12 06:04:26;;;;;;;7.77;3.10;;;35.10;41.40;;;;;;5074840;28;20476;-78
2022/08/12 06:06:54;;;;;;;6.63;3.00;;;35.30;40.30;;;;;;5072303;28;20453;-78
2022/08/12 06:09:24;;;;;;;8.07;2.53;;;34.40;39.60;;;;;;5074429;28;20468;-78
2022/08/12 06:11:52;;;;;;;7.77;3.60;;;32.80;40.00;;;;;;5073406;28;20483;-76
2022/08/12 06:14:35;;;;;;;5.63;2.90;;;31.10;41.00;;;;;;5077020;28;20454;-77
2022/08/12 06:17:07;;;;;;;7.50;2.80;;;29.40;42.10;;;;;;5073327;28;20478;-76
2022/08/12 06:19:35;;;;;;;7.80;2.87;;;28.20;43.10;;;;;;5058945;28;20510;-78
2022/08/12 06:22:25;;;;;;;11.07;2.73;;;27.10;44.10;;;;;;5071707;28;20495;-78
2022/08/12 06:24:53;;;;;;;6.30;2.80;;;26.20;45.00;;;;;;5071283;28;20592;-78
2022/08/12 06:27:21;;;;;;;7.80;2.60;;;25.60;45.80;;;;;;5071697;28;20465;-76
2022/08/12 06:29:51;;;;;;;6.87;3.07;;;25.10;46.50;;;;;;5063238;28;20454;-78
2022/08/12 06:32:38;;;;;;;5.90;3.20;;;24.70;47.00;;;;;;5061946;28;20516;-77
2022/08/12 06:35:26;;;;;;;5.47;3.17;;;24.40;47.70;;;;;;5070585;28;20472;-77
2022/08/12 06:38:16;;;;;;;5.10;2.83;;;24.20;48.10;;;;;;5075217;28;20487;-77
2022/08/12 06:43:30;;;;;;;8.83;3.10;;;23.90;49.00;;;;;;5061528;28;20856;-77
2022/08/12 06:46:20;;;;;;;8.90;3.63;;;23.80;49.10;;;;;;5072039;28;20496;-77
2022/08/12 06:48:53;;;;;;;5.70;3.00;;;23.70;49.60;;;;;;5078231;28;20455;-77
2022/08/12 06:51:21;;;;;;;9.20;3.00;;;23.60;49.80;;;;;;5069189;28;20496;-78
2022/08/12 06:53:49;;;;;;;8.30;2.97;;;23.60;50.10;;;;;;5078422;28;20481;-78
2022/08/12 06:56:17;;;;;;;7.03;3.03;;;23.60;50.20;;;;;;5066885;28;20449;-78
2022/08/12 06:58:45;;;;;;;11.07;3.13;;;23.60;50.40;;;;;;5070621;28;20509;-78
2022/08/12 07:01:13;;;;;;;12.20;2.90;;;23.60;50.70;;;;;;5084029;28;20473;-78
2022/08/12 07:03:43;;;;;;;6.30;2.97;;;23.50;50.70;;;;;;5078366;28;20472;-78
2022/08/12 07:06:12;;;;;;;7.37;2.63;;;23.50;50.90;;;;;;5079226;28;20964;-78
2022/08/12 07:08:42;;;;;;;5.50;2.50;;;23.50;51.00;;;;;;5084339;28;20471;-79
2022/08/12 07:11:12;;;;;;;5.00;2.20;;;23.60;51.10;;;;;;5066276;28;20490;-78
2022/08/12 07:13:44;;;;;;;6.50;3.03;;;23.60;51.30;;;;;;5078136;28;21079;-78
2022/08/12 07:19:15;;;;;;;5.60;2.63;;;23.60;51.30;;;;;;5079238;28;20467;-78
2022/08/12 07:21:43;;;;;;;5.97;2.87;;;23.70;51.40;;;;;;5081177;28;20454;-79
2022/08/12 07:24:29;;;;;;;6.73;2.77;;;23.70;51.50;;;;;;5066635;28;20464;-78
2022/08/12 07:26:58;;;;;;;5.30;2.57;;;23.70;51.50;;;;;;5098234;28;20457;-78
2022/08/12 07:29:27;;;;;;;8.40;2.93;;;23.70;51.50;;;;;;5078513;28;20510;-78
2022/08/12 07:32:15;;;;;;;7.20;2.47;;;23.70;51.50;;;;;;5083535;28;20488;-77
2022/08/12 07:34:46;;;;;;;6.13;2.40;;;23.70;51.60;;;;;;5086700;28;20445;-78
2022/08/12 07:37:14;;;;;;;6.90;2.50;;;23.70;51.60;;;;;;5084503;28;20459;-78
2022/08/12 07:39:42;;;;;;;6.37;2.87;;;23.80;51.70;;;;;;5073363;28;20454;-78
2022/08/12 07:42:18;;;;;;;6.47;2.90;;;23.80;51.60;;;;;;5068449;28;20516;-78
2022/08/12 07:44:46;;;;;;;8.13;2.93;;;23.90;51.70;;;;;;5088564;28;20955;-78
2022/08/12 07:47:18;;;;;;;7.83;2.60;;;23.90;51.70;;;;;;5084473;28;21008;-78
2022/08/12 07:49:47;;;;;;;8.10;2.87;;;23.90;51.70;;;;;;5085328;28;20454;-77
2022/08/12 07:52:31;;;;;;;8.57;3.27;;;24.00;51.80;;;;;;5086216;28;21182;-78
2022/08/12 07:55:00;;;;;;;6.70;2.90;;;24.00;51.80;;;;;;5088936;28;20451;-77
2022/08/12 07:57:28;;;;;;;7.07;2.80;;;24.10;51.80;;;;;;5066308;28;21137;-77
2022/08/12 07:59:56;;;;;;;9.67;2.53;;;24.10;51.80;;;;;;5080265;28;20482;-76
2022/08/12 08:02:24;;;;;;;5.93;2.53;;;24.10;51.80;;;;;;5081272;28;20468;-78
2022/08/12 08:04:59;;;;;;;7.80;2.90;;;24.20;51.80;;;;;;5067287;28;20503;-78
2022/08/12 08:07:28;;;;;;;5.80;2.90;;;24.20;51.70;;;;;;5065624;28;20458;-76
2022/08/12 08:09:59;;;;;;;7.00;2.90;;;24.30;51.70;;;;;;5077402;28;20461;-76
2022/08/12 08:15:15;;;;;;;5.77;2.90;;;24.30;51.60;;;;;;5075601;28;20461;-78
2022/08/12 08:17:56;;;;;;;6.23;2.80;;;24.40;51.60;;;;;;5097972;28;20454;-77
2022/08/12 08:20:28;;;;;;;7.30;2.60;;;24.40;51.50;;;;;;5081240;28;20494;-77
2022/08/12 08:22:57;;;;;;;6.40;2.50;;;24.50;51.30;;;;;;5078791;28;20493;-78
2022/08/12 08:25:30;;;;;;;10.37;2.60;;;24.60;51.20;;;;;;5078159;28;20444;-78
2022/08/12 08:28:08;;;;;;;6.30;2.30;;;24.70;51.10;;;;;;5059949;28;20767;-78
2022/08/12 08:30:38;;;;;;;5.03;2.30;;;24.70;51.00;;;;;;5078473;28;20462;-77
2022/08/12 08:33:09;;;;;;;5.30;2.80;;;24.80;50.90;;;;;;5081213;28;20557;-77
2022/08/12 08:35:59;;;;;;;7.10;2.73;;;24.80;50.90;;;;;;5068617;28;20458;-78
2022/08/12 08:38:29;;;;;;;7.40;2.50;;;24.90;50.90;;;;;;5080669;28;20444;-77
2022/08/12 08:44:09;;;;;;;6.63;2.23;;;25.00;50.70;;;;;;5063547;28;20769;-77
2022/08/12 08:46:38;;;;;;;5.47;2.07;;;25.10;50.50;;;;;;5076951;28;20518;-77
2022/08/12 08:49:07;;;;;;;15.07;3.00;;;25.20;50.40;;;;;;5081566;28;20460;-77
2022/08/12 08:51:37;;;;;;;4.80;2.33;;;25.20;50.30;;;;;;5077517;28;20475;-77
2022/08/12 08:54:07;;;;;;;8.10;2.20;;;25.20;50.20;;;;;;5076283;28;20924;-77
2022/08/12 08:56:42;;;;;;;4.63;2.17;;;25.30;50.10;;;;;;5078236;28;20481;-77
2022/08/12 08:59:11;;;;;;;5.00;2.27;;;25.40;50.00;;;;;;5060532;28;20466;-78
2022/08/12 09:01:39;;;;;;;5.37;2.13;;;25.40;49.90;;;;;;5076730;28;20469;-77
2022/08/12 09:04:11;;;;;;;5.70;2.80;;;25.50;49.70;;;;;;5076330;28;21059;-78
2022/08/12 09:07:01;;;;;;;6.20;2.17;;;25.50;49.60;;;;;;5065832;28;21347;-77
2022/08/12 09:09:50;;;;;;;5.27;2.27;;;25.60;49.50;;;;;;5073363;28;20464;-77
2022/08/12 09:15:23;;;;;;;4.90;2.10;;;25.80;49.20;;;;;;5077625;28;20456;-77
2022/08/12 09:18:11;;;;;;;4.97;1.80;;;25.80;48.90;;;;;;5078453;28;20573;-77
2022/08/12 09:20:42;;;;;;;10.00;2.27;;;25.80;48.60;;;;;;5081389;28;20464;-78
2022/08/12 09:23:13;;;;;;;7.83;2.40;;;25.90;48.40;;;;;;5079421;28;20836;-78
2022/08/12 09:26:01;;;;;;;7.23;2.00;;;26.00;48.40;;;;;;5080112;28;20462;-77
2022/08/12 09:28:50;;;;;;;4.93;2.03;;;26.00;48.20;;;;;;5082505;28;20459;-78
2022/08/12 09:31:20;;;;;;;5.20;2.23;;;26.00;47.90;;;;;;5084119;28;20565;-77
2022/08/12 09:34:09;;;;;;;4.30;1.63;;;26.00;47.70;;;;;;5075756;28;20694;-76
2022/08/12 09:36:56;;;;;;;9.47;2.57;;;26.00;47.20;;;;;;5082267;28;20451;-77
2022/08/12 09:39:31;;;;;;;4.73;2.10;;;26.10;47.20;;;;;;5082348;28;20482;-77
2022/08/12 09:45:21;;;;;;;4.73;2.20;;;26.20;47.30;;;;;;5077160;28;20452;-76
2022/08/12 09:47:53;;;;;;;8.57;2.27;;;26.20;47.30;;;;;;5081605;28;20456;-77
2022/08/12 09:50:27;;;;;;;6.77;2.10;;;26.20;47.20;;;;;;5078405;28;20456;-78
2022/08/12 09:53:06;;;;;;;9.70;2.50;;;26.20;47.20;;;;;;5079410;28;20482;-77
2022/08/12 09:55:46;;;;;;;6.33;2.07;;;26.30;47.20;;;;;;5078181;28;20457;-77
2022/08/12 09:58:36;;;;;;;8.40;2.00;;;26.30;47.00;;;;;;5078178;28;20554;-76
2022/08/12 10:01:24;;;;;;;6.67;2.00;;;26.40;46.90;;;;;;5078012;28;20550;-77
2022/08/12 10:04:02;;;;;;;5.13;2.10;;;26.40;46.90;;;;;;5066781;28;20859;-77
2022/08/12 10:06:32;;;;;;;5.60;2.13;;;26.50;46.70;;;;;;5075637;28;20448;-77
2022/08/12 10:09:20;;;;;;;7.67;2.00;;;26.50;46.70;;;;;;5059704;28;21045;-78
2022/08/12 10:14:43;;;;;;;4.87;2.00;;;26.60;46.60;;;;;;5060666;28;20461;-78
2022/08/12 10:17:21;;;;;;;6.90;1.50;;;26.60;46.40;;;;;;5074817;28;20821;-78
2022/08/12 10:19:50;;;;;;;4.73;1.60;;;26.60;45.90;;;;;;5057064;28;20477;-77
2022/08/12 10:22:20;;;;;;;4.60;2.00;;;26.60;45.70;;;;;;5077935;28;20499;-76
2022/08/12 10:31:00;;;;;;;7.00;2.00;;;26.80;45.20;;;;;;5100225;28;20476;-77
2022/08/12 10:33:33;;;;;;;4.40;1.57;;;26.80;44.90;;;;;;5083576;28;21085;-78
2022/08/12 10:36:23;;;;;;;4.60;1.73;;;26.90;44.90;;;;;;5080268;28;20548;-78
2022/08/12 10:39:12;;;;;;;5.00;1.70;;;26.80;44.90;;;;;;5079485;28;20456;-77
2022/08/12 10:45:09;;;;;;;4.60;1.60;;;26.90;44.80;;;;;;5080786;28;21003;-77
2022/08/12 10:47:51;;;;;;;8.37;2.30;;;26.90;44.80;;;;;;5082907;28;20555;-78
2022/08/12 10:50:40;;;;;;;6.10;1.90;;;27.00;44.90;;;;;;5082636;28;20464;-78
2022/08/12 10:53:28;;;;;;;4.43;1.73;;;27.00;44.90;;;;;;5064902;28;20483;-78
2022/08/12 10:56:14;;;;;;;8.50;2.30;;;27.10;44.70;;;;;;5079827;28;20470;-78
2022/08/12 10:58:42;;;;;;;5.40;1.97;;;27.10;44.60;;;;;;5080412;28;20456;-77
2022/08/12 11:01:17;;;;;;;5.17;1.63;;;27.10;44.70;;;;;;5083162;28;20480;-77
2022/08/12 11:04:06;;;;;;;4.83;1.80;;;27.20;44.40;;;;;;5079963;28;20931;-77
2022/08/12 11:06:54;;;;;;;4.30;1.57;;;27.20;44.40;;;;;;5076719;28;20460;-78
2022/08/12 11:09:42;;;;;;;6.47;1.87;;;27.30;44.40;;;;;;5077882;28;20538;-78
2022/08/12 11:12:29;;;;;;;7.10;2.13;;;27.30;44.30;;;;;;5095439;27;20479;-77
2022/08/12 11:15:20;;;;;;;6.70;2.03;;;27.40;44.20;;;;;;5071397;28;20452;-76
2022/08/12 11:18:10;;;;;;;4.80;1.80;;;27.40;44.00;;;;;;5079086;28;20481;-78
2022/08/12 11:20:46;;;;;;;4.40;1.83;;;27.40;44.00;;;;;;5080126;28;20475;-77
2022/08/12 11:23:15;;;;;;;4.80;1.80;;;27.50;43.60;;;;;;5062151;28;20491;-78
2022/08/12 11:26:04;;;;;;;5.13;1.93;;;27.50;43.30;;;;;;5099322;28;20525;-77
2022/08/12 11:28:33;;;;;;;5.37;1.37;;;27.60;43.30;;;;;;5081241;28;20458;-78
2022/08/12 11:31:06;;;;;;;5.50;2.20;;;27.60;43.40;;;;;;5082608;28;20559;-78
2022/08/12 11:33:49;;;;;;;4.53;1.83;;;27.60;43.30;;;;;;5079438;28;20503;-78
2022/08/12 11:36:38;;;;;;;5.30;1.80;;;27.70;43.00;;;;;;5078290;28;20498;-78
2022/08/12 11:39:07;;;;;;;4.87;1.60;;;27.60;43.20;;;;;;5079741;28;20448;-78
2022/08/12 11:41:39;;;;;;;7.30;1.87;;;27.60;43.10;;;;;;5094138;28;20493;-78
2022/08/12 11:44:10;;;;;;;4.00;1.77;;;27.60;42.90;;;;;;5081003;28;20533;-78
2022/08/12 11:46:57;;;;;;;5.53;1.50;;;27.70;42.90;;;;;;5075461;28;20511;-78
2022/08/12 11:49:27;;;;;;;4.77;2.00;;;27.80;42.90;;;;;;5077422;28;20447;-77
2022/08/12 11:52:01;;;;;;;4.80;1.80;;;27.90;42.90;;;;;;5093415;28;20572;-76
2022/08/12 11:54:29;;;;;;;6.00;1.77;;;27.90;42.90;;;;;;5080382;28;20471;-77
2022/08/12 11:56:58;;;;;;;6.80;2.27;;;27.90;42.80;;;;;;5076224;28;20445;-78
2022/08/12 11:59:30;;;;;;;5.30;1.73;;;27.90;42.90;;;;;;5079553;28;20453;-79
2022/08/12 12:02:19;;;;;;;4.10;1.47;;;27.90;42.90;;;;;;5076655;28;20475;-78
2022/08/12 12:04:50;;;;;;;6.53;2.03;;;27.90;42.90;;;;;;5059336;28;20451;-76
2022/08/12 12:07:22;;;;;;;5.50;1.97;;;27.90;42.90;;;;;;5076988;28;20460;-77
2022/08/12 12:10:11;;;;;;;6.50;1.73;;;27.90;42.60;;;;;;5061516;28;20459;-78
2022/08/12 12:12:39;;;;;;;4.60;2.00;;;27.90;42.70;;;;;;5066546;28;20494;-76
2022/08/12 12:15:16;;;;;;;7.63;2.23;;;27.90;42.80;;;;;;5069003;28;20467;-78
2022/08/12 12:18:04;;;;;;;5.27;1.50;;;28.00;42.70;;;;;;5069682;28;20451;-77
2022/08/12 12:20:34;;;;;;;4.43;1.80;;;28.10;42.70;;;;;;5072962;28;20481;-78
2022/08/12 12:23:03;;;;;;;4.93;1.90;;;28.10;42.60;;;;;;5074215;28;20511;-76
2022/08/12 12:25:33;;;;;;;6.03;2.10;;;28.10;42.70;;;;;;5066888;28;20453;-77
2022/08/12 12:28:22;;;;;;;7.10;2.07;;;28.20;42.60;;;;;;5074278;28;20475;-78
2022/08/12 12:31:05;;;;;;;5.03;1.90;;;28.20;42.70;;;;;;5075415;28;21281;-78
2022/08/12 12:33:53;;;;;;;5.20;2.13;;;28.10;42.70;;;;;;5075018;28;20565;-78
2022/08/12 12:36:26;;;;;;;14.23;2.20;;;28.20;42.90;;;;;;5074985;28;20520;-78
2022/08/12 12:38:58;;;;;;;5.90;2.20;;;28.20;42.90;;;;;;5064518;28;20975;-77
2022/08/12 12:41:28;;;;;;;5.43;1.93;;;28.20;42.80;;;;;;5077619;28;21275;-78
2022/08/12 12:44:16;;;;;;;9.80;1.93;;;28.20;42.90;;;;;;5078692;28;20446;-76
2022/08/12 12:46:57;;;;;;;6.40;1.60;;;28.20;42.80;;;;;;5075662;28;20487;-77
2022/08/12 12:49:27;;;;;;;5.93;1.60;;;28.20;42.80;;;;;;5079395;28;20469;-76
2022/08/12 12:51:57;;;;;;;4.87;1.80;;;28.20;42.80;;;;;;5076516;28;20466;-77
2022/08/12 12:54:51;;;;;;;5.93;1.83;;;28.20;42.90;;;;;;5074791;28;20508;-77
2022/08/12 12:57:19;;;;;;;4.53;1.80;;;28.20;42.90;;;;;;5063144;28;20541;-77
2022/08/12 13:00:15;;;;;;;4.80;1.90;;;28.30;42.80;;;;;;5071609;28;20538;-77
2022/08/12 13:02:51;;;;;;;5.80;2.47;;;28.30;42.80;;;;;;5073115;28;20485;-77
2022/08/12 13:05:23;;;;;;;5.83;1.83;;;28.30;42.70;;;;;;5076581;28;20440;-77
2022/08/12 13:07:57;;;;;;;6.20;1.83;;;28.40;42.70;;;;;;5070580;28;20484;-77
2022/08/12 13:10:29;;;;;;;4.80;1.60;;;28.50;42.60;;;;;;5074010;28;20521;-77
2022/08/12 13:13:05;;;;;;;5.03;1.90;;;28.40;42.40;;;;;;5075698;28;20471;-77
2022/08/12 13:15:53;;;;;;;5.53;1.60;;;28.40;42.40;;;;;;5074474;28;20499;-77
2022/08/12 13:18:30;;;;;;;7.10;2.07;;;28.40;42.40;;;;;;5073827;28;20451;-77
2022/08/12 13:20:58;;;;;;;5.70;1.90;;;28.30;42.40;;;;;;5078139;28;20459;-77
2022/08/12 13:23:28;;;;;;;4.00;1.70;;;28.30;42.50;;;;;;5072903;28;20562;-76
2022/08/12 13:26:06;;;;;;;6.30;1.80;;;28.40;42.40;;;;;;5075154;28;20455;-77
2022/08/12 13:28:44;;;;;;;4.83;2.20;;;28.40;42.50;;;;;;5076332;28;20473;-77
2022/08/12 13:31:22;;;;;;;4.17;1.77;;;28.50;42.30;;;;;;5063961;28;20524;-77
2022/08/12 13:33:53;;;;;;;7.20;1.73;;;28.50;42.20;;;;;;5076011;28;20595;-77
2022/08/12 13:36:42;;;;;;;4.97;1.50;;;28.50;42.20;;;;;;5075832;28;21049;-77
2022/08/12 13:39:13;;;;;;;6.83;1.80;;;28.60;42.10;;;;;;5056122;28;20457;-78
2022/08/12 13:41:43;;;;;;;6.30;1.50;;;28.60;41.90;;;;;;5075119;28;20465;-78
2022/08/12 13:44:11;;;;;;;7.13;1.50;;;28.60;41.60;;;;;;5075978;28;20488;-78
2022/08/12 13:46:40;;;;;;;4.70;1.77;;;28.60;41.50;;;;;;5076124;28;20819;-77
2022/08/12 13:49:12;;;;;;;5.50;1.87;;;28.60;41.40;;;;;;5077617;28;20465;-77
2022/08/12 13:52:00;;;;;;;4.20;1.47;;;28.60;41.40;;;;;;5077219;28;20996;-77
2022/08/12 13:54:29;;;;;;;4.50;1.40;;;28.70;41.20;;;;;;5071402;28;20475;-77
2022/08/12 13:56:57;;;;;;;4.83;1.80;;;28.70;41.20;;;;;;5072129;28;20460;-77
2022/08/12 13:59:27;;;;;;;6.27;1.90;;;28.70;41.10;;;;;;5077328;28;20497;-77
2022/08/12 14:02:16;;;;;;;7.70;2.27;;;28.80;41.00;;;;;;5073970;28;20575;-78
2022/08/12 14:04:44;;;;;;;4.40;1.90;;;28.80;40.90;;;;;;5078202;28;20454;-78
2022/08/12 14:07:23;;;;;;;5.93;1.73;;;28.80;40.90;;;;;;5075806;28;20571;-77
2022/08/12 14:12:45;;;;;;;6.70;2.00;;;28.80;41.00;;;;;;5064630;28;20520;-77
2022/08/12 14:15:22;;;;;;;7.03;2.00;;;28.80;41.10;;;;;;5080030;28;20504;-78
2022/08/12 14:18:12;;;;;;;6.50;1.90;;;28.90;41.20;;;;;;5076860;28;20484;-77
2022/08/12 14:20:43;;;;;;;5.23;2.00;;;29.10;41.10;;;;;;5067778;28;20525;-79
2022/08/12 14:23:15;;;;;;;5.30;1.77;;;29.10;41.00;;;;;;5081991;28;20935;-77
2022/08/12 14:26:07;;;;;;;5.90;1.67;;;29.20;41.00;;;;;;5080747;28;20489;-76
2022/08/12 14:28:40;;;;;;;6.33;1.80;;;29.20;41.10;;;;;;5083492;28;20454;-77
2022/08/12 14:31:24;;;;;;;6.00;1.77;;;29.20;41.00;;;;;;5086650;28;20479;-77
2022/08/12 14:33:59;;;;;;;5.53;1.83;;;29.20;40.80;;;;;;5083350;28;20578;-80
2022/08/12 14:36:32;;;;;;;3.87;1.40;;;29.20;40.90;;;;;;5068720;28;20540;-78
2022/08/12 14:39:03;;;;;;;5.77;2.90;;;29.20;40.90;;;;;;5064929;28;20464;-79
2022/08/12 14:41:33;;;;;;;4.10;1.60;;;29.10;41.00;;;;;;5079619;28;20995;-80
2022/08/12 14:44:15;;;;;;;4.70;2.10;;;29.10;40.90;;;;;;5073445;28;21075;-76
2022/08/12 14:47:03;;;;;;;4.97;1.60;;;29.00;41.00;;;;;;5074290;28;20479;-76
2022/08/12 14:49:35;;;;;;;5.70;1.70;;;29.00;41.10;;;;;;5079146;28;20448;-79
2022/08/12 14:52:23;;;;;;;4.30;1.47;;;28.90;41.10;;;;;;5065861;28;20495;-79
2022/08/12 14:55:11;;;;;;;8.23;1.63;;;28.90;41.30;;;;;;5076121;28;20564;-78
2022/08/12 14:58:01;;;;;;;5.03;1.47;;;28.90;41.20;;;;;;5063433;28;20463;-78
2022/08/12 15:03:30;;;;;;;4.33;1.60;;;29.00;40.60;;;;;;5066811;28;20590;-77
2022/08/12 15:06:18;;;;;;;4.77;1.20;;;29.00;40.30;;;;;;5078231;28;20447;-77
2022/08/12 15:09:07;;;;;;;4.70;1.53;;;29.00;40.30;;;;;;5089679;28;20521;-78
2022/08/12 15:11:40;;;;;;;4.63;0.97;;;29.10;40.00;;;;;;5072479;28;20445;-78
2022/08/12 15:14:25;;;;;;;3.67;0.90;;;29.20;39.80;;;;;;5067360;28;20499;-78
2022/08/12 15:16:54;;;;;;;3.90;1.30;;;29.20;39.80;;;;;;5074228;28;20479;-78
2022/08/12 15:19:28;;;;;;;5.20;1.30;;;29.20;39.70;;;;;;5073939;28;20468;-76
2022/08/12 15:22:16;;;;;;;4.67;1.10;;;29.30;39.70;;;;;;5059314;28;20658;-77
2022/08/12 15:25:05;;;;;;;3.40;0.80;;;29.30;39.40;;;;;;5074750;28;20461;-76
2022/08/12 15:27:42;;;;;;;3.73;1.10;;;29.30;39.00;;;;;;5074579;28;20460;-77
2022/08/12 15:30:32;;;;;;;3.57;0.70;;;29.30;38.80;;;;;;5069124;28;20476;-76